Time;durP1;ratioP1;P1;durP2;ratioP2;P2;SDS_P1;SDS_P2;PMS_P1;PMS_P2;Temp;Humidity;BMP_temperature;BMP_pressure;BME280_temperature;BME280_humidity;BME280_pressure;Samples;Min_cycle;Max_cycle;Signal;HPM_P1;HPM_P2
2022/09/15 00:00:15;;;;;;;5.45;1.60;;;;;;;;;;5095301;27;92462;-67
2022/09/15 00:02:43;;;;;;;6.75;2.00;;;;;;;;;;5078026;27;93858;-68
2022/09/15 00:05:09;;;;;;;2.75;1.35;;;;;;;;;;5076665;27;92742;-68
2022/09/15 00:07:36;;;;;;;4.32;1.55;;;;;;;;;;5080202;27;92454;-68
2022/09/15 00:10:03;;;;;;;5.90;1.90;;;;;;;;;;5076824;27;93204;-68
2022/09/15 00:12:29;;;;;;;3.90;1.63;;;;;;;;;;5076754;27;94852;-68
2022/09/15 00:14:56;;;;;;;4.15;1.65;;;;;;;;;;5096765;27;95486;-68
2022/09/15 00:17:22;;;;;;;7.20;1.70;;;;;;;;;;5094749;27;93022;-68
2022/09/15 00:19:48;;;;;;;6.82;1.70;;;;;;;;;;5076933;27;92595;-68
2022/09/15 00:22:14;;;;;;;2.47;1.55;;;;;;;;;;5077496;27;92822;-68
2022/09/15 00:24:41;;;;;;;10.18;2.10;;;;;;;;;;5082752;27;93108;-68
2022/09/15 00:27:07;;;;;;;2.78;1.70;;;;;;;;;;5074628;27;92360;-68
2022/09/15 00:29:34;;;;;;;7.78;1.95;;;;;;;;;;5083432;27;92824;-68
2022/09/15 00:32:01;;;;;;;7.78;2.10;;;;;;;;;;5096731;27;92428;-68
2022/09/15 00:34:27;;;;;;;9.68;2.25;;;;;;;;;;5092089;27;93967;-68
2022/09/15 00:36:53;;;;;;;3.35;2.20;;;;;;;;;;5075132;27;97381;-68
2022/09/15 00:39:20;;;;;;;3.35;2.22;;;;;;;;;;5091388;27;92446;-68
2022/09/15 00:41:46;;;;;;;2.85;1.98;;;;;;;;;;5076671;27;93293;-69
2022/09/15 00:44:15;;;;;;;11.32;2.50;;;;;;;;;;5076378;27;93188;-67
2022/09/15 00:46:42;;;;;;;4.25;2.38;;;;;;;;;;5080480;27;92384;-69
2022/09/15 00:49:25;;;;;;;6.03;2.28;;;;;;;;;;5096207;27;93271;-68
2022/09/15 00:52:00;;;;;;;4.43;2.53;;;;;;;;;;5087323;27;93493;-68
2022/09/15 00:54:26;;;;;;;3.35;2.17;;;;;;;;;;5076148;27;93320;-68
2022/09/15 00:56:53;;;;;;;10.60;2.80;;;;;;;;;;5075971;27;92404;-67
2022/09/15 00:59:22;;;;;;;3.90;2.70;;;;;;;;;;5076576;27;92578;-70
2022/09/15 01:01:51;;;;;;;3.47;2.00;;;;;;;;;;5073408;27;95413;-68
2022/09/15 01:04:18;;;;;;;7.88;2.55;;;;;;;;;;5076468;27;92416;-68
2022/09/15 01:06:48;;;;;;;5.80;3.28;;;;;;;;;;5076741;27;92519;-68
2022/09/15 01:09:17;;;;;;;6.53;3.17;;;;;;;;;;5079029;27;96038;-68
2022/09/15 01:11:44;;;;;;;5.03;3.20;;;;;;;;;;5075576;27;93476;-68
2022/09/15 01:14:10;;;;;;;5.07;3.00;;;;;;;;;;5079297;27;92458;-68
2022/09/15 01:16:45;;;;;;;3.22;2.90;;;;;;;;;;5074941;27;92432;-68
2022/09/15 01:19:31;;;;;;;6.88;4.13;;;;;;;;;;5076345;27;91752;-68
2022/09/15 01:22:22;;;;;;;5.90;3.78;;;;;;;;;;5076151;27;92384;-68
2022/09/15 01:25:02;;;;;;;6.88;4.00;;;;;;;;;;5090159;27;93474;-68
2022/09/15 01:28:06;;;;;;;9.23;4.38;;;;;;;;;;5074906;27;94979;-67
2022/09/15 01:30:38;;;;;;;7.28;4.43;;;;;;;;;;5012452;28;95407;-68
2022/09/15 01:33:04;;;;;;;6.77;4.60;;;;;;;;;;5022019;28;93360;-68
2022/09/15 01:35:39;;;;;;;9.30;4.70;;;;;;;;;;5064423;27;92496;-68
2022/09/15 01:38:18;;;;;;;4.43;4.03;;;;;;;;;;5090290;27;92755;-68
2022/09/15 01:40:54;;;;;;;8.57;4.18;;;;;;;;;;5075141;27;92467;-68
2022/09/15 01:43:22;;;;;;;9.00;4.72;;;;;;;;;;5078245;27;92824;-68
2022/09/15 01:45:50;;;;;;;9.20;4.47;;;;;;;;;;5075750;27;92528;-68
2022/09/15 01:48:18;;;;;;;8.68;3.50;;;;;;;;;;5076075;27;93309;-68
2022/09/15 01:50:47;;;;;;;17.67;4.20;;;;;;;;;;5074591;27;93950;-68
2022/09/15 01:53:15;;;;;;;5.80;4.00;;;;;;;;;;5074048;27;96536;-68
2022/09/15 01:55:45;;;;;;;6.82;4.65;;;;;;;;;;5076462;27;92405;-68
2022/09/15 01:58:11;;;;;;;8.82;4.05;;;;;;;;;;5077611;27;94061;-68
2022/09/15 02:00:40;;;;;;;8.93;4.25;;;;;;;;;;5087731;27;93150;-68
2022/09/15 02:03:16;;;;;;;9.18;4.28;;;;;;;;;;5096579;27;93867;-68
2022/09/15 02:05:46;;;;;;;5.07;4.07;;;;;;;;;;5094412;27;93367;-68
2022/09/15 02:08:24;;;;;;;5.78;4.00;;;;;;;;;;5096648;27;92360;-68
2022/09/15 02:10:50;;;;;;;7.13;3.92;;;;;;;;;;5096087;27;92049;-68
2022/09/15 02:13:36;;;;;;;6.07;4.18;;;;;;;;;;5077283;27;93118;-68
2022/09/15 02:16:03;;;;;;;4.65;3.42;;;;;;;;;;5075512;27;92373;-68
2022/09/15 02:18:36;;;;;;;7.18;4.25;;;;;;;;;;5076096;27;94789;-68
2022/09/15 02:21:14;;;;;;;5.95;4.18;;;;;;;;;;5078050;27;93345;-68
2022/09/15 02:23:42;;;;;;;8.65;4.03;;;;;;;;;;5079919;27;94494;-68
2022/09/15 02:26:12;;;;;;;11.05;3.83;;;;;;;;;;5094331;27;92843;-68
2022/09/15 02:28:40;;;;;;;6.55;4.13;;;;;;;;;;5092276;27;92401;-68
2022/09/15 02:31:09;;;;;;;7.72;4.00;;;;;;;;;;5075050;27;92817;-68
2022/09/15 02:33:39;;;;;;;5.60;3.80;;;;;;;;;;5076643;27;93671;-68
2022/09/15 02:36:07;;;;;;;7.82;3.85;;;;;;;;;;5075325;27;91758;-68
2022/09/15 02:38:37;;;;;;;12.93;4.70;;;;;;;;;;5075087;27;92436;-68
2022/09/15 02:41:04;;;;;;;6.90;3.80;;;;;;;;;;5073751;27;93536;-68
2022/09/15 02:43:32;;;;;;;4.60;3.75;;;;;;;;;;5076245;27;94865;-68
2022/09/15 02:45:58;;;;;;;9.43;3.90;;;;;;;;;;5074661;27;93288;-68
2022/09/15 02:48:25;;;;;;;4.60;3.80;;;;;;;;;;5074387;27;92478;-68
2022/09/15 02:50:51;;;;;;;4.53;3.90;;;;;;;;;;5079169;27;95507;-68
2022/09/15 02:53:18;;;;;;;6.82;3.55;;;;;;;;;;5078923;27;94240;-68
2022/09/15 02:55:44;;;;;;;7.30;3.40;;;;;;;;;;5078143;27;92674;-68
2022/09/15 02:58:10;;;;;;;7.20;3.90;;;;;;;;;;5079031;27;94289;-70
2022/09/15 03:00:38;;;;;;;5.75;3.47;;;;;;;;;;5078366;27;92326;-68
2022/09/15 03:03:04;;;;;;;8.57;2.90;;;;;;;;;;5078168;27;93011;-68
2022/09/15 03:05:30;;;;;;;4.43;2.88;;;;;;;;;;5081717;27;93839;-68
2022/09/15 03:07:57;;;;;;;4.30;3.15;;;;;;;;;;5078454;27;94864;-68
2022/09/15 03:10:24;;;;;;;4.25;3.30;;;;;;;;;;5078610;27;96247;-68
2022/09/15 03:12:51;;;;;;;9.82;2.90;;;;;;;;;;5077722;27;93256;-68
2022/09/15 03:15:19;;;;;;;5.82;3.05;;;;;;;;;;5077857;27;92838;-67
2022/09/15 03:17:46;;;;;;;7.70;3.10;;;;;;;;;;5078247;27;93927;-68
2022/09/15 03:20:14;;;;;;;5.88;2.45;;;;;;;;;;5085981;27;92997;-68
2022/09/15 03:22:41;;;;;;;8.18;2.83;;;;;;;;;;5094354;27;94167;-68
2022/09/15 03:25:08;;;;;;;4.00;2.53;;;;;;;;;;5080731;27;93298;-68
2022/09/15 03:27:35;;;;;;;6.43;2.55;;;;;;;;;;5081452;27;94345;-68
2022/09/15 03:30:01;;;;;;;7.80;3.20;;;;;;;;;;5076886;27;93011;-68
2022/09/15 03:32:27;;;;;;;5.70;2.50;;;;;;;;;;5076575;27;96468;-68
2022/09/15 03:34:54;;;;;;;8.02;2.78;;;;;;;;;;5077908;27;92425;-68
2022/09/15 03:37:24;;;;;;;5.82;2.50;;;;;;;;;;5086174;27;92464;-68
2022/09/15 03:39:50;;;;;;;9.85;2.83;;;;;;;;;;5097518;27;93407;-68
2022/09/15 03:42:16;;;;;;;6.75;2.40;;;;;;;;;;5084241;27;92527;-68
2022/09/15 03:44:43;;;;;;;9.52;2.08;;;;;;;;;;5076732;27;92754;-68
2022/09/15 03:47:09;;;;;;;6.20;2.40;;;;;;;;;;5078006;27;94097;-68
2022/09/15 03:49:35;;;;;;;9.20;2.17;;;;;;;;;;5080459;27;91650;-68
2022/09/15 03:52:02;;;;;;;8.85;2.45;;;;;;;;;;5075941;27;93118;-68
2022/09/15 03:54:28;;;;;;;3.80;2.05;;;;;;;;;;5078481;27;92447;-68
2022/09/15 03:56:54;;;;;;;3.50;2.10;;;;;;;;;;5075701;27;94799;-68
2022/09/15 03:59:20;;;;;;;3.65;2.15;;;;;;;;;;5080449;27;94385;-68
2022/09/15 04:01:49;;;;;;;6.05;2.03;;;;;;;;;;5076742;27;92440;-68
2022/09/15 04:04:16;;;;;;;5.47;2.40;;;;;;;;;;5076310;27;92862;-68
2022/09/15 04:06:43;;;;;;;3.50;1.70;;;;;;;;;;5077451;27;94145;-68
2022/09/15 04:09:09;;;;;;;4.28;1.90;;;;;;;;;;5077175;27;92463;-68
2022/09/15 04:11:37;;;;;;;7.78;1.73;;;;;;;;;;5085393;27;92982;-68
2022/09/15 04:14:03;;;;;;;5.72;2.10;;;;;;;;;;5092702;27;91693;-68
2022/09/15 04:16:29;;;;;;;6.90;2.00;;;;;;;;;;5094894;27;92503;-68
2022/09/15 04:18:56;;;;;;;7.15;2.63;;;;;;;;;;5077371;27;93575;-68
2022/09/15 04:21:24;;;;;;;2.53;1.65;;;;;;;;;;5075152;27;94812;-68
2022/09/15 04:23:51;;;;;;;4.60;1.80;;;;;;;;;;5083297;27;95495;-68
2022/09/15 04:26:26;;;;;;;3.53;1.88;;;;;;;;;;5096263;27;93337;-68
2022/09/15 04:28:52;;;;;;;7.03;1.88;;;;;;;;;;5083805;27;92510;-68
2022/09/15 04:31:19;;;;;;;4.00;1.75;;;;;;;;;;5080060;27;93156;-68
2022/09/15 04:33:45;;;;;;;8.07;2.17;;;;;;;;;;5075630;27;93270;-68
2022/09/15 04:36:13;;;;;;;10.95;2.00;;;;;;;;;;5092664;27;94123;-68
2022/09/15 04:38:40;;;;;;;3.90;1.77;;;;;;;;;;5097193;27;91551;-68
2022/09/15 04:41:06;;;;;;;7.57;2.05;;;;;;;;;;5097072;27;92467;-68
2022/09/15 04:43:33;;;;;;;3.85;1.65;;;;;;;;;;5096822;27;92856;-68
2022/09/15 04:45:59;;;;;;;3.65;1.65;;;;;;;;;;5080483;27;95759;-68
2022/09/15 04:48:25;;;;;;;5.10;1.92;;;;;;;;;;5076355;27;92470;-68
2022/09/15 04:50:52;;;;;;;4.28;1.60;;;;;;;;;;5075550;27;93733;-69
2022/09/15 04:53:18;;;;;;;4.22;1.77;;;;;;;;;;5082838;27;94165;-69
2022/09/15 04:55:44;;;;;;;5.72;1.70;;;;;;;;;;5076325;27;92841;-69
2022/09/15 04:58:11;;;;;;;9.20;1.80;;;;;;;;;;5076015;27;93388;-69
2022/09/15 05:00:42;;;;;;;2.67;1.50;;;;;;;;;;5075102;27;92562;-69
2022/09/15 05:03:09;;;;;;;6.82;2.00;;;;;;;;;;5077413;27;92986;-69
2022/09/15 05:05:36;;;;;;;5.55;1.85;;;;;;;;;;5076396;27;93091;-69
2022/09/15 05:08:02;;;;;;;4.45;1.75;;;;;;;;;;5075387;27;92538;-69
2022/09/15 05:10:29;;;;;;;4.45;1.50;;;;;;;;;;5075113;27;95372;-69
2022/09/15 05:12:55;;;;;;;5.80;1.80;;;;;;;;;;5075134;27;93262;-69
2022/09/15 05:15:23;;;;;;;6.75;1.90;;;;;;;;;;5079181;27;92336;-69
2022/09/15 05:17:49;;;;;;;4.55;1.50;;;;;;;;;;5076425;27;93916;-69
2022/09/15 05:20:16;;;;;;;7.20;2.38;;;;;;;;;;5092988;27;92443;-69
2022/09/15 05:22:43;;;;;;;6.15;1.65;;;;;;;;;;5096311;27;94123;-69
2022/09/15 05:25:09;;;;;;;2.67;1.50;;;;;;;;;;5078009;27;93191;-69
2022/09/15 05:27:38;;;;;;;2.78;1.38;;;;;;;;;;5077443;27;91534;-69
2022/09/15 05:30:05;;;;;;;5.00;1.73;;;;;;;;;;5075576;27;92949;-69
2022/09/15 05:32:51;;;;;;;4.93;1.80;;;;;;;;;;5076160;27;94119;-69
2022/09/15 05:35:18;;;;;;;10.30;1.83;;;;;;;;;;5074668;27;94850;-69
2022/09/15 05:37:44;;;;;;;4.72;1.60;;;;;;;;;;5098205;27;95416;-68
2022/09/15 05:40:11;;;;;;;8.70;1.92;;;;;;;;;;5096969;27;92530;-69
2022/09/15 05:42:37;;;;;;;4.22;2.00;;;;;;;;;;5095085;27;93032;-69
2022/09/15 05:45:03;;;;;;;13.32;1.67;;;;;;;;;;5095679;27;93224;-69
2022/09/15 05:47:30;;;;;;;2.53;1.75;;;;;;;;;;5094104;27;94077;-69
2022/09/15 05:49:56;;;;;;;6.97;1.67;;;;;;;;;;5078261;27;92961;-69
2022/09/15 05:52:22;;;;;;;5.88;1.55;;;;;;;;;;5076735;27;94056;-69
2022/09/15 05:54:49;;;;;;;9.73;2.08;;;;;;;;;;5075646;27;92975;-69
2022/09/15 05:57:15;;;;;;;6.00;1.58;;;;;;;;;;5075198;27;93936;-69
2022/09/15 05:59:42;;;;;;;4.40;1.77;;;;;;;;;;5077212;27;96935;-69
2022/09/15 06:02:09;;;;;;;9.13;1.90;;;;;;;;;;5086593;27;95202;-68
2022/09/15 06:04:36;;;;;;;1.80;1.10;;;;;;;;;;5074873;27;94108;-68
2022/09/15 06:07:02;;;;;;;2.65;1.23;;;;;;;;;;5074856;27;93293;-69
2022/09/15 06:09:28;;;;;;;4.70;1.75;;;;;;;;;;5077241;27;93810;-68
2022/09/15 06:11:55;;;;;;;4.18;1.27;;;;;;;;;;5087136;27;94188;-69
2022/09/15 06:14:21;;;;;;;4.13;1.77;;;;;;;;;;5094215;27;92377;-69
2022/09/15 06:16:47;;;;;;;2.83;1.38;;;;;;;;;;5078973;27;93796;-69
2022/09/15 06:19:14;;;;;;;6.10;1.70;;;;;;;;;;5075593;27;94422;-68
2022/09/15 06:21:40;;;;;;;4.18;1.55;;;;;;;;;;5079151;27;94152;-69
2022/09/15 06:24:06;;;;;;;3.95;1.55;;;;;;;;;;5089800;27;96378;-68
2022/09/15 06:26:33;;;;;;;5.45;2.30;;;;;;;;;;5092216;27;92392;-70
2022/09/15 06:29:00;;;;;;;4.28;1.52;;;;;;;;;;5076125;27;92927;-69
2022/09/15 06:31:27;;;;;;;5.32;1.52;;;;;;;;;;5074658;27;93916;-69
2022/09/15 06:33:56;;;;;;;13.00;2.03;;;;;;;;;;5074125;27;92597;-69
2022/09/15 06:36:26;;;;;;;9.68;2.25;;;;;;;;;;5074547;27;92904;-68
2022/09/15 06:38:53;;;;;;;8.43;2.33;;;;;;;;;;5073439;27;93372;-69
2022/09/15 06:41:20;;;;;;;7.85;1.77;;;;;;;;;;5077911;27;91685;-69
2022/09/15 06:43:48;;;;;;;7.65;1.92;;;;;;;;;;5074676;27;94621;-67
2022/09/15 06:46:18;;;;;;;6.10;1.77;;;;;;;;;;5074149;27;92539;-68
2022/09/15 06:48:45;;;;;;;16.27;2.20;;;;;;;;;;5072750;27;94763;-68
2022/09/15 06:51:15;;;;;;;7.57;1.85;;;;;;;;;;5075965;27;94117;-68
2022/09/15 06:53:42;;;;;;;15.00;2.03;;;;;;;;;;5073996;27;92568;-69
2022/09/15 06:56:13;;;;;;;6.57;1.92;;;;;;;;;;5073286;27;93272;-69
2022/09/15 06:58:40;;;;;;;4.72;1.50;;;;;;;;;;5075020;27;94398;-69
2022/09/15 07:01:08;;;;;;;3.65;1.50;;;;;;;;;;5083783;27;93197;-69
2022/09/15 07:03:35;;;;;;;11.75;2.10;;;;;;;;;;5098716;27;94591;-68
2022/09/15 07:06:03;;;;;;;7.30;1.90;;;;;;;;;;5096285;27;91860;-69
2022/09/15 07:08:29;;;;;;;7.60;1.95;;;;;;;;;;5094285;27;92558;-69
2022/09/15 07:10:55;;;;;;;6.72;1.85;;;;;;;;;;5095193;27;93820;-69
2022/09/15 07:13:22;;;;;;;7.82;1.83;;;;;;;;;;5093650;27;94949;-69
2022/09/15 07:15:52;;;;;;;7.07;1.70;;;;;;;;;;5093042;27;95520;-69
2022/09/15 07:18:19;;;;;;;7.57;1.73;;;;;;;;;;5074410;27;93452;-68
2022/09/15 07:20:45;;;;;;;9.02;1.98;;;;;;;;;;5074334;27;93605;-68
2022/09/15 07:23:12;;;;;;;5.82;1.90;;;;;;;;;;5073565;27;92963;-68
2022/09/15 07:25:43;;;;;;;6.18;1.75;;;;;;;;;;5080382;27;93286;-66
2022/09/15 07:28:10;;;;;;;10.20;1.70;;;;;;;;;;5094614;27;94014;-67
2022/09/15 07:30:38;;;;;;;6.35;1.50;;;;;;;;;;5095239;27;92545;-67
2022/09/15 07:33:05;;;;;;;6.22;1.50;;;;;;;;;;5094842;27;93060;-66
2022/09/15 07:35:31;;;;;;;12.75;2.15;;;;;;;;;;5095234;27;93241;-66
2022/09/15 07:37:57;;;;;;;8.02;1.65;;;;;;;;;;5095650;27;95587;-66
2022/09/15 07:40:25;;;;;;;4.20;1.35;;;;;;;;;;5098033;27;92479;-66
2022/09/15 07:42:51;;;;;;;7.28;1.48;;;;;;;;;;5097226;27;92881;-66
2022/09/15 07:45:17;;;;;;;4.57;1.25;;;;;;;;;;5097581;27;93513;-69
2022/09/15 07:47:44;;;;;;;3.25;1.02;;;;;;;;;;5102039;27;93038;-69
2022/09/15 07:50:13;;;;;;;4.50;1.30;;;;;;;;;;5097574;27;94224;-68
2022/09/15 07:52:39;;;;;;;7.93;1.35;;;;;;;;;;5080566;27;92432;-69
2022/09/15 07:55:05;;;;;;;7.70;1.40;;;;;;;;;;5078480;27;93996;-69
2022/09/15 07:57:32;;;;;;;5.88;1.50;;;;;;;;;;5076587;27;93472;-67
2022/09/15 07:59:58;;;;;;;7.55;1.27;;;;;;;;;;5076412;27;92608;-67
2022/09/15 08:02:24;;;;;;;3.72;1.55;;;;;;;;;;5075840;27;94782;-67
2022/09/15 08:04:52;;;;;;;6.95;1.23;;;;;;;;;;5075868;27;93391;-67
2022/09/15 08:07:18;;;;;;;5.43;1.35;;;;;;;;;;5078181;27;92448;-67
2022/09/15 08:09:44;;;;;;;4.00;1.20;;;;;;;;;;5080388;27;94035;-67
2022/09/15 08:12:11;;;;;;;6.20;1.65;;;;;;;;;;5077185;27;92468;-67
2022/09/15 08:14:37;;;;;;;10.90;1.60;;;;;;;;;;5077601;27;93915;-67
2022/09/15 08:17:03;;;;;;;3.47;1.27;;;;;;;;;;5076643;27;93216;-67
2022/09/15 08:19:36;;;;;;;5.63;1.23;;;;;;;;;;5077621;27;91682;-67
2022/09/15 08:22:03;;;;;;;5.47;1.48;;;;;;;;;;5077642;27;93175;-67
2022/09/15 08:24:29;;;;;;;2.67;1.08;;;;;;;;;;5075888;27;93405;-67
2022/09/15 08:26:55;;;;;;;3.97;1.70;;;;;;;;;;5075083;27;95084;-67
2022/09/15 08:29:21;;;;;;;6.13;1.20;;;;;;;;;;5079814;27;96240;-67
2022/09/15 08:31:48;;;;;;;3.78;1.00;;;;;;;;;;5076411;27;92427;-67
2022/09/15 08:34:15;;;;;;;10.05;2.47;;;;;;;;;;5077092;27;92999;-67
2022/09/15 08:36:41;;;;;;;7.47;1.23;;;;;;;;;;5076809;27;93368;-67
2022/09/15 08:39:08;;;;;;;4.50;1.30;;;;;;;;;;5075290;27;92376;-67
2022/09/15 08:41:36;;;;;;;3.40;1.23;;;;;;;;;;5077204;27;93934;-67
2022/09/15 08:44:21;;;;;;;5.88;1.50;;;;;;;;;;5078388;27;93201;-67
2022/09/15 08:46:50;;;;;;;5.80;1.83;;;;;;;;;;5095939;27;92502;-67
2022/09/15 08:49:35;;;;;;;4.72;1.42;;;;;;;;;;5097293;27;92978;-67
2022/09/15 08:52:22;;;;;;;5.53;1.15;;;;;;;;;;5098321;27;95520;-67
2022/09/15 08:54:51;;;;;;;3.63;2.13;;;;;;;;;;5096676;27;95416;-67
2022/09/15 08:57:18;;;;;;;4.00;1.38;;;;;;;;;;5096631;27;93339;-67
2022/09/15 08:59:45;;;;;;;6.63;1.63;;;;;;;;;;5096038;27;92464;-67
2022/09/15 09:02:11;;;;;;;5.13;1.55;;;;;;;;;;5096968;27;93033;-67
2022/09/15 09:04:37;;;;;;;8.20;1.55;;;;;;;;;;5096393;27;93369;-67
2022/09/15 09:07:21;;;;;;;6.22;1.85;;;;;;;;;;5084995;27;92525;-67
2022/09/15 09:10:08;;;;;;;6.63;1.80;;;;;;;;;;5076007;27;92743;-67
2022/09/15 09:12:34;;;;;;;9.73;1.33;;;;;;;;;;5062438;27;92845;-67
2022/09/15 09:15:23;;;;;;;6.60;1.60;;;;;;;;;;5077821;27;93232;-67
2022/09/15 09:18:09;;;;;;;6.15;1.33;;;;;;;;;;5073668;27;95666;-68
2022/09/15 09:20:56;;;;;;;6.85;1.40;;;;;;;;;;5075370;27;92954;-67
2022/09/15 09:23:23;;;;;;;10.77;1.65;;;;;;;;;;5076438;27;93987;-67
2022/09/15 09:25:51;;;;;;;10.30;1.70;;;;;;;;;;5076072;27;93987;-68
2022/09/15 09:28:31;;;;;;;10.27;2.08;;;;;;;;;;5075933;27;92736;-67
2022/09/15 09:31:01;;;;;;;4.53;1.48;;;;;;;;;;5076452;27;93875;-67
2022/09/15 09:33:33;;;;;;;5.53;1.65;;;;;;;;;;5083919;27;93404;-67
2022/09/15 09:36:01;;;;;;;6.82;1.50;;;;;;;;;;5075811;27;91789;-67
2022/09/15 09:38:29;;;;;;;7.35;1.30;;;;;;;;;;5079082;27;92317;-67
2022/09/15 09:40:56;;;;;;;4.28;1.55;;;;;;;;;;5076190;27;93023;-67
2022/09/15 09:43:28;;;;;;;6.40;1.87;;;;;;;;;;5074127;27;94977;-67
2022/09/15 09:45:54;;;;;;;6.05;1.73;;;;;;;;;;5075593;27;94231;-67
2022/09/15 09:48:22;;;;;;;8.38;1.85;;;;;;;;;;5076386;27;92680;-68
2022/09/15 09:50:49;;;;;;;3.22;1.25;;;;;;;;;;5074788;27;93937;-67
2022/09/15 09:53:15;;;;;;;4.45;1.30;;;;;;;;;;5075471;27;93436;-67
2022/09/15 09:55:44;;;;;;;8.55;1.50;;;;;;;;;;5074696;27;92791;-67
2022/09/15 09:58:13;;;;;;;9.05;1.40;;;;;;;;;;5083218;27;92907;-67
2022/09/15 10:00:40;;;;;;;12.45;2.17;;;;;;;;;;5098877;27;91777;-67
2022/09/15 10:03:11;;;;;;;4.22;1.42;;;;;;;;;;5095296;27;93606;-67
2022/09/15 10:05:37;;;;;;;6.67;1.73;;;;;;;;;;5086610;27;93336;-67
2022/09/15 10:08:04;;;;;;;8.88;1.80;;;;;;;;;;5074040;27;94822;-67
2022/09/15 10:10:31;;;;;;;7.07;1.67;;;;;;;;;;5075338;27;96466;-67
2022/09/15 10:13:00;;;;;;;7.57;2.55;;;;;;;;;;5074802;27;93438;-67
2022/09/15 10:15:27;;;;;;;12.95;2.00;;;;;;;;;;5074599;27;92442;-67
2022/09/15 10:17:55;;;;;;;5.55;1.33;;;;;;;;;;5074812;27;92870;-67
2022/09/15 10:20:32;;;;;;;8.00;1.65;;;;;;;;;;5074990;27;93321;-67
2022/09/15 10:23:04;;;;;;;5.18;1.30;;;;;;;;;;5078696;27;92393;-67
2022/09/15 10:25:32;;;;;;;7.20;1.88;;;;;;;;;;5075477;27;93568;-67
2022/09/15 10:28:24;;;;;;;7.05;1.55;;;;;;;;;;5075443;27;93368;-67
2022/09/15 10:31:09;;;;;;;5.57;1.73;;;;;;;;;;5075829;27;94401;-67
2022/09/15 10:33:40;;;;;;;6.97;1.77;;;;;;;;;;5093313;27;95903;-67
2022/09/15 10:36:14;;;;;;;4.20;1.15;;;;;;;;;;5095297;27;92599;-67
2022/09/15 10:38:42;;;;;;;4.38;1.63;;;;;;;;;;5094309;27;92790;-67
2022/09/15 10:41:23;;;;;;;8.80;1.77;;;;;;;;;;5094866;27;93238;-67
2022/09/15 10:43:50;;;;;;;5.15;1.60;;;;;;;;;;5098484;27;92372;-68
2022/09/15 10:46:28;;;;;;;5.63;1.35;;;;;;;;;;5094959;27;94295;-67
2022/09/15 10:49:00;;;;;;;6.05;2.30;;;;;;;;;;5095263;27;92456;-67
2022/09/15 10:51:35;;;;;;;9.30;1.85;;;;;;;;;;5095790;27;92998;-67
2022/09/15 10:54:23;;;;;;;8.10;1.70;;;;;;;;;;5094257;27;93371;-68
2022/09/15 10:56:53;;;;;;;5.25;1.40;;;;;;;;;;5086869;27;92384;-67
2022/09/15 10:59:29;;;;;;;5.88;1.55;;;;;;;;;;5073153;27;94785;-67
2022/09/15 11:02:27;;;;;;;5.60;1.80;;;;;;;;;;5074314;27;92928;-67
2022/09/15 11:04:54;;;;;;;4.47;1.00;;;;;;;;;;5037393;27;92764;-67
2022/09/15 11:07:32;;;;;;;8.32;2.22;;;;;;;;;;5077358;27;94086;-67
2022/09/15 11:10:04;;;;;;;8.35;1.77;;;;;;;;;;5075542;27;92698;-67
2022/09/15 11:12:57;;;;;;;6.63;1.77;;;;;;;;;;5079071;27;94132;-67
2022/09/15 11:15:23;;;;;;;;;;;;;;;;;;5053206;27;93621;-67
2022/09/15 11:17:52;;;;;;;7.10;1.65;;;;;;;;;;5078998;27;118247;-67
2022/09/15 11:20:27;;;;;;;7.30;2.20;;;;;;;;;;5077264;27;92388;-67
2022/09/15 11:22:58;;;;;;;5.22;1.40;;;;;;;;;;5077655;27;93028;-67
2022/09/15 11:25:26;;;;;;;5.43;1.60;;;;;;;;;;5077033;27;94671;-67
2022/09/15 11:27:53;;;;;;;7.97;1.52;;;;;;;;;;5076825;27;95277;-67
2022/09/15 11:30:21;;;;;;;8.27;1.65;;;;;;;;;;5081405;27;93927;-67
2022/09/15 11:32:56;;;;;;;4.22;1.20;;;;;;;;;;5077591;27;92969;-67
2022/09/15 11:35:30;;;;;;;6.90;1.20;;;;;;;;;;5076702;27;93085;-67
2022/09/15 11:38:17;;;;;;;11.80;1.30;;;;;;;;;;5078272;27;93734;-67
2022/09/15 11:41:01;;;;;;;6.22;1.65;;;;;;;;;;5045939;27;92633;-67
2022/09/15 11:43:36;;;;;;;6.93;1.20;;;;;;;;;;5077392;27;92773;-67
2022/09/15 11:46:06;;;;;;;4.32;1.00;;;;;;;;;;5077744;27;92443;-67
2022/09/15 11:48:35;;;;;;;6.18;1.70;;;;;;;;;;5076384;27;93341;-67
2022/09/15 11:51:02;;;;;;;7.80;1.52;;;;;;;;;;5075146;27;95724;-68
2022/09/15 11:53:41;;;;;;;6.05;1.27;;;;;;;;;;5080838;27;92430;-68
2022/09/15 11:56:14;;;;;;;6.28;1.23;;;;;;;;;;5079763;27;94008;-67
2022/09/15 11:58:53;;;;;;;2.45;1.00;;;;;;;;;;5097602;27;93082;-67
2022/09/15 12:01:21;;;;;;;6.75;1.30;;;;;;;;;;5098416;27;93043;-67
2022/09/15 12:03:54;;;;;;;10.93;1.40;;;;;;;;;;5095548;27;93327;-67
2022/09/15 12:06:38;;;;;;;2.40;1.00;;;;;;;;;;5097211;27;92492;-67
2022/09/15 12:09:12;;;;;;;2.97;1.00;;;;;;;;;;5098026;27;93049;-67
2022/09/15 12:11:45;;;;;;;3.58;1.02;;;;;;;;;;5097402;27;94228;-67
2022/09/15 12:14:25;;;;;;;6.35;1.10;;;;;;;;;;5098497;27;92295;-69
2022/09/15 12:16:52;;;;;;;3.95;1.00;;;;;;;;;;5099032;27;94787;-68
2022/09/15 12:19:31;;;;;;;3.03;0.85;;;;;;;;;;5098534;27;92433;-68
2022/09/15 12:22:11;;;;;;;6.38;0.95;;;;;;;;;;5082903;27;93927;-67
2022/09/15 12:24:42;;;;;;;2.25;1.10;;;;;;;;;;5075671;27;92557;-67
2022/09/15 12:27:13;;;;;;;8.03;1.20;;;;;;;;;;5076777;27;92492;-68
2022/09/15 12:29:46;;;;;;;4.78;1.20;;;;;;;;;;5076827;27;93676;-67
2022/09/15 12:32:17;;;;;;;2.42;1.10;;;;;;;;;;5076686;27;94160;-67
2022/09/15 12:35:02;;;;;;;3.83;1.23;;;;;;;;;;5077912;27;91721;-67
2022/09/15 12:37:43;;;;;;;6.50;1.27;;;;;;;;;;5076861;27;92881;-67
2022/09/15 12:40:32;;;;;;;5.43;1.30;;;;;;;;;;5079949;27;93781;-67
2022/09/15 12:43:02;;;;;;;6.80;1.17;;;;;;;;;;5066643;27;95493;-67
2022/09/15 12:45:30;;;;;;;3.80;1.48;;;;;;;;;;5075688;27;94066;-67
2022/09/15 12:48:00;;;;;;;7.65;1.27;;;;;;;;;;5077142;27;93433;-67
2022/09/15 12:50:29;;;;;;;8.68;2.60;;;;;;;;;;5077158;27;92845;-67
2022/09/15 12:52:57;;;;;;;6.60;1.48;;;;;;;;;;5075676;27;93205;-68
2022/09/15 12:55:26;;;;;;;3.33;1.17;;;;;;;;;;5077417;27;92412;-67
2022/09/15 12:58:00;;;;;;;6.30;1.20;;;;;;;;;;5076218;27;92933;-67
2022/09/15 13:00:27;;;;;;;4.50;1.42;;;;;;;;;;5079435;27;92840;-67
2022/09/15 13:02:54;;;;;;;2.65;1.10;;;;;;;;;;5076364;27;92741;-67
2022/09/15 13:05:39;;;;;;;8.77;1.73;;;;;;;;;;5076375;27;93208;-67
2022/09/15 13:08:10;;;;;;;6.47;1.55;;;;;;;;;;5075181;27;94848;-67
2022/09/15 13:10:40;;;;;;;4.22;1.38;;;;;;;;;;5076674;27;96260;-67
2022/09/15 13:13:09;;;;;;;3.65;1.48;;;;;;;;;;5075209;27;93456;-67
2022/09/15 13:15:39;;;;;;;6.63;1.30;;;;;;;;;;5077007;27;92746;-67
2022/09/15 13:18:06;;;;;;;2.33;1.00;;;;;;;;;;5076309;27;93355;-67
2022/09/15 13:20:34;;;;;;;3.58;1.10;;;;;;;;;;5095274;27;94153;-67
2022/09/15 13:23:01;;;;;;;9.32;1.20;;;;;;;;;;5099085;27;93251;-67
2022/09/15 13:25:29;;;;;;;6.30;1.65;;;;;;;;;;5096659;27;92623;-67
2022/09/15 13:27:57;;;;;;;5.40;1.88;;;;;;;;;;5095698;27;92987;-67
2022/09/15 13:30:23;;;;;;;2.30;1.25;;;;;;;;;;5096252;27;92982;-67
2022/09/15 13:32:58;;;;;;;4.82;1.67;;;;;;;;;;5094523;27;96200;-67
2022/09/15 13:35:48;;;;;;;7.28;1.50;;;;;;;;;;5096410;27;92495;-67
2022/09/15 13:38:21;;;;;;;5.57;1.25;;;;;;;;;;5097029;27;93812;-67
2022/09/15 13:40:56;;;;;;;5.93;1.30;;;;;;;;;;5096050;27;94040;-67
2022/09/15 13:43:42;;;;;;;9.43;1.48;;;;;;;;;;5095949;27;92449;-68
2022/09/15 13:46:11;;;;;;;5.68;1.48;;;;;;;;;;5081101;27;93237;-68
2022/09/15 13:48:46;;;;;;;1.88;1.17;;;;;;;;;;5090008;27;92862;-68
2022/09/15 13:51:22;;;;;;;5.28;1.23;;;;;;;;;;5076003;27;93074;-67
2022/09/15 13:53:50;;;;;;;4.05;1.38;;;;;;;;;;5074312;27;93531;-68
2022/09/15 13:56:26;;;;;;;3.60;1.15;;;;;;;;;;5083992;27;92563;-68
2022/09/15 13:58:54;;;;;;;4.60;1.52;;;;;;;;;;5072951;27;94829;-68
2022/09/15 14:01:27;;;;;;;5.90;1.25;;;;;;;;;;5076163;27;93176;-68
2022/09/15 14:03:59;;;;;;;8.45;1.70;;;;;;;;;;5090220;27;92945;-68
2022/09/15 14:06:36;;;;;;;4.22;1.23;;;;;;;;;;5084373;27;94060;-68
2022/09/15 14:09:23;;;;;;;8.48;1.20;;;;;;;;;;5094591;27;92483;-68
2022/09/15 14:11:51;;;;;;;4.00;1.38;;;;;;;;;;5082502;27;93932;-68
2022/09/15 14:14:26;;;;;;;5.13;1.17;;;;;;;;;;5080691;27;94063;-68
2022/09/15 14:16:54;;;;;;;3.15;0.93;;;;;;;;;;5091206;27;92184;-68
2022/09/15 14:19:29;;;;;;;7.18;1.33;;;;;;;;;;5089185;27;93151;-68
2022/09/15 14:21:55;;;;;;;2.80;1.15;;;;;;;;;;5079075;27;94102;-68
2022/09/15 14:24:30;;;;;;;1.08;0.75;;;;;;;;;;5084083;27;96699;-68
2022/09/15 14:27:06;;;;;;;3.45;0.82;;;;;;;;;;5083507;27;96185;-67
2022/09/15 14:29:37;;;;;;;4.13;1.10;;;;;;;;;;5074694;27;93424;-68
2022/09/15 14:32:04;;;;;;;1.37;0.87;;;;;;;;;;5079952;27;93766;-68
2022/09/15 14:34:33;;;;;;;3.78;0.98;;;;;;;;;;5080608;27;93316;-67
2022/09/15 14:37:10;;;;;;;4.05;0.90;;;;;;;;;;5085229;27;93972;-68
2022/09/15 14:39:39;;;;;;;2.20;0.80;;;;;;;;;;5074948;27;92546;-68
2022/09/15 14:42:20;;;;;;;4.40;1.48;;;;;;;;;;5074307;27;93464;-68
2022/09/15 14:44:47;;;;;;;4.20;1.10;;;;;;;;;;5092849;27;92922;-68
2022/09/15 14:47:34;;;;;;;3.30;1.02;;;;;;;;;;5083556;27;94431;-68
2022/09/15 14:50:06;;;;;;;3.00;1.08;;;;;;;;;;5077588;27;95797;-68
2022/09/15 14:52:36;;;;;;;4.70;1.30;;;;;;;;;;5096210;27;94795;-68
2022/09/15 14:55:05;;;;;;;2.72;1.00;;;;;;;;;;5099209;27;94094;-68
2022/09/15 14:57:35;;;;;;;4.97;1.83;;;;;;;;;;5081805;27;92524;-67
2022/09/15 15:00:06;;;;;;;2.17;0.85;;;;;;;;;;5081380;27;93797;-68